createdAt,value
2022-12-15T00:00:21.313Z,97702.21
2022-12-15T00:03:28.148Z,97700.20
2022-12-15T00:06:15.206Z,97697.19
2022-12-15T00:09:01.775Z,97697.92
2022-12-15T00:11:48.467Z,97698.04
2022-12-15T00:14:35.053Z,97694.23
2022-12-15T00:17:21.615Z,97696.66
2022-12-15T00:20:08.224Z,97700.32
2022-12-15T00:22:54.544Z,97704.38
2022-12-15T00:25:41.360Z,97703.38
2022-12-15T00:28:28.146Z,97704.42
2022-12-15T00:31:16.758Z,97701.63
2022-12-15T00:34:03.625Z,97704.34
2022-12-15T00:36:50.214Z,97711.92
2022-12-15T00:39:18.080Z,97706.17
2022-12-15T00:41:45.860Z,97696.48
2022-12-15T00:44:18.946Z,97696.11
2022-12-15T00:46:54.476Z,97701.36
2022-12-15T00:49:42.671Z,97699.97
2022-12-15T00:52:29.693Z,97697.05
2022-12-15T00:55:16.536Z,97694.17
2022-12-15T00:58:03.407Z,97692.27
2022-12-15T01:00:49.968Z,97692.77
2022-12-15T01:03:40.394Z,97691.41
2022-12-15T01:06:29.580Z,97687.90
2022-12-15T01:09:16.209Z,97691.84
2022-12-15T01:12:03.418Z,97695.69
2022-12-15T01:14:50.611Z,97700.77
2022-12-15T01:17:37.591Z,97699.94
2022-12-15T01:20:18.666Z,97695.20
2022-12-15T01:22:55.981Z,97695.34
2022-12-15T01:25:25.509Z,97702.83
2022-12-15T01:27:53.541Z,97707.17
2022-12-15T01:30:25.554Z,97705.23
2022-12-15T01:32:53.863Z,97701.68
2022-12-15T01:35:21.702Z,97706.11
2022-12-15T01:37:50.325Z,97706.98
2022-12-15T01:40:39.615Z,97709.30
2022-12-15T01:43:25.081Z,97711.86
2022-12-15T01:46:14.240Z,97712.27
2022-12-15T01:48:48.896Z,97711.69
2022-12-15T01:51:25.249Z,97714.25
2022-12-15T01:53:58.321Z,97720.58
2022-12-15T01:56:29.143Z,97719.45
2022-12-15T01:59:02.291Z,97725.45
2022-12-15T02:01:30.518Z,97724.70
2022-12-15T02:03:58.498Z,97727.58
2022-12-15T02:06:26.606Z,97734.98
2022-12-15T02:08:55.938Z,97734.83
2022-12-15T02:12:02.395Z,97738.52
2022-12-15T02:14:48.656Z,97741.34
2022-12-15T02:17:27.380Z,97743.65
2022-12-15T02:20:07.443Z,97741.11
2022-12-15T02:23:13.800Z,97744.89
2022-12-15T02:26:00.059Z,97747.93
2022-12-15T02:29:04.779Z,97747.51
2022-12-15T02:31:50.455Z,97752.17
2022-12-15T02:34:53.735Z,97757.31
2022-12-15T02:37:25.170Z,97758.64
2022-12-15T02:39:52.957Z,97757.12
2022-12-15T02:42:21.579Z,97762.17
2022-12-15T02:44:56.673Z,97760.40
2022-12-15T02:47:32.734Z,97759.02
2022-12-15T02:50:12.470Z,97763.45
2022-12-15T02:52:52.069Z,97769.73
2022-12-15T02:55:50.350Z,97766.23
2022-12-15T02:58:29.811Z,97772.52
2022-12-15T03:01:24.990Z,97781.73
2022-12-15T03:03:53.151Z,97774.91
2022-12-15T03:06:20.917Z,97775.06
2022-12-15T03:08:50.225Z,97772.08
2022-12-15T03:11:17.980Z,97773.50
2022-12-15T03:13:46.146Z,97781.55
2022-12-15T03:16:17.717Z,97784.73
2022-12-15T03:18:45.439Z,97786.09
2022-12-15T03:21:13.613Z,97789.63
2022-12-15T03:23:41.273Z,97793.84
2022-12-15T03:26:08.952Z,97798.27
2022-12-15T03:28:36.598Z,97800.15
2022-12-15T03:31:04.483Z,97799.35
2022-12-15T03:33:34.042Z,97798.12
2022-12-15T03:36:02.199Z,97795.48
2022-12-15T03:38:29.905Z,97794.73
2022-12-15T03:40:57.598Z,97791.47
2022-12-15T03:43:25.311Z,97792.61
2022-12-15T03:45:53.030Z,97794.94
2022-12-15T03:48:21.593Z,97798.98
2022-12-15T03:50:50.116Z,97802.86
2022-12-15T03:53:17.788Z,97807.27
2022-12-15T03:55:45.499Z,97810.52
2022-12-15T03:58:13.218Z,97807.32
2022-12-15T04:00:40.881Z,97806.20
2022-12-15T04:03:10.850Z,97814.89
2022-12-15T04:05:39.240Z,97814.66
2022-12-15T04:08:06.986Z,97813.18
2022-12-15T04:10:35.508Z,97816.43
2022-12-15T04:13:05.027Z,97819.02
2022-12-15T04:15:33.847Z,97823.35
2022-12-15T04:18:03.439Z,97823.58
2022-12-15T04:20:31.491Z,97825.90
2022-12-15T04:23:00.329Z,97830.55
2022-12-15T04:25:47.042Z,97830.06
2022-12-15T04:28:33.541Z,97830.34
2022-12-15T04:31:26.923Z,97835.05
2022-12-15T04:34:20.248Z,97839.24
2022-12-15T04:37:09.304Z,97849.16
2022-12-15T04:40:02.060Z,97857.58
2022-12-15T04:42:49.148Z,97863.46
2022-12-15T04:45:38.281Z,97865.05
2022-12-15T04:48:24.873Z,97869.38
2022-12-15T04:51:11.369Z,97872.25
2022-12-15T04:53:57.837Z,97879.87
2022-12-15T04:56:44.429Z,97883.85
2022-12-15T04:59:30.917Z,97885.51
2022-12-15T05:02:17.747Z,97890.90
2022-12-15T05:05:04.898Z,97894.52
2022-12-15T05:07:51.468Z,97903.55
2022-12-15T05:10:38.040Z,97910.19
2022-12-15T05:13:26.083Z,97916.28
2022-12-15T05:16:12.656Z,97909.70
2022-12-15T05:18:59.355Z,97908.52
2022-12-15T05:21:45.952Z,97912.98
2022-12-15T05:24:32.592Z,97915.39
2022-12-15T05:27:19.120Z,97917.84
2022-12-15T05:30:05.770Z,97919.61
2022-12-15T05:32:33.534Z,97926.92
2022-12-15T05:35:01.530Z,97927.33
2022-12-15T05:37:29.287Z,97932.36
2022-12-15T05:39:57.008Z,97935.42
2022-12-15T05:42:24.687Z,97939.02
2022-12-15T05:44:52.384Z,97946.43
2022-12-15T05:47:20.033Z,97948.84
2022-12-15T05:49:47.706Z,97950.05
2022-12-15T05:52:15.366Z,97955.16
2022-12-15T05:54:43.104Z,97958.26
2022-12-15T05:57:10.847Z,97965.85
2022-12-15T05:59:38.583Z,97968.29
2022-12-15T06:02:06.435Z,97971.22
2022-12-15T06:04:34.217Z,97976.43
2022-12-15T06:07:01.951Z,97974.14
2022-12-15T06:09:29.752Z,97974.21
2022-12-15T06:11:57.584Z,97982.13
2022-12-15T06:14:25.898Z,97986.77
2022-12-15T06:16:53.627Z,97991.44
2022-12-15T06:19:22.169Z,97997.70
2022-12-15T06:21:49.843Z,98004.36
2022-12-15T06:24:17.828Z,98010.75
2022-12-15T06:26:45.875Z,98015.66
2022-12-15T06:29:13.991Z,98023.52
2022-12-15T06:31:42.877Z,98028.48
2022-12-15T06:34:12.908Z,98030.83
2022-12-15T06:36:41.375Z,98035.30
2022-12-15T06:39:12.205Z,98039.86
2022-12-15T06:41:40.089Z,98048.16
2022-12-15T06:44:08.016Z,98053.02
2022-12-15T06:46:35.704Z,98057.25
2022-12-15T06:49:03.643Z,98067.42
2022-12-15T06:51:32.270Z,98071.98
2022-12-15T06:53:59.970Z,98075.95
2022-12-15T06:56:34.773Z,98078.38
2022-12-15T06:59:06.968Z,98083.73
2022-12-15T07:01:35.707Z,98087.77
2022-12-15T07:04:05.560Z,98095.64
2022-12-15T07:06:37.874Z,98094.53
2022-12-15T07:09:08.080Z,98099.95
2022-12-15T07:11:36.033Z,98104.52
2022-12-15T07:14:04.379Z,98106.53
2022-12-15T07:16:32.336Z,98110.45
2022-12-15T07:19:00.137Z,98111.23
2022-12-15T07:21:27.977Z,98115.44
2022-12-15T07:23:57.235Z,98118.34
2022-12-15T07:26:26.163Z,98125.40
2022-12-15T07:28:54.520Z,98126.28
2022-12-15T07:31:23.204Z,98127.42
2022-12-15T07:33:52.585Z,98133.66
2022-12-15T07:36:20.682Z,98141.30
2022-12-15T07:38:50.053Z,98139.23
2022-12-15T07:41:20.131Z,98148.25
2022-12-15T07:43:48.418Z,98147.73
2022-12-15T07:46:17.057Z,98148.14
2022-12-15T07:48:50.942Z,98151.79
2022-12-15T07:51:20.894Z,98160.08
2022-12-15T07:53:51.054Z,98167.98
2022-12-15T07:56:20.203Z,98176.46
2022-12-15T07:58:48.926Z,98184.48
2022-12-15T08:01:17.116Z,98197.03
2022-12-15T08:03:45.490Z,98195.10
2022-12-15T08:06:15.084Z,98195.09
2022-12-15T08:08:44.343Z,98196.02
2022-12-15T08:11:14.296Z,98200.84
2022-12-15T08:16:33.385Z,98208.00
2022-12-15T08:19:01.148Z,98208.25
2022-12-15T08:21:31.293Z,98213.98
2022-12-15T08:24:00.938Z,98217.50
2022-12-15T08:26:30.873Z,98221.00
2022-12-15T08:29:31.839Z,98232.64
2022-12-15T08:31:52.129Z,98234.74
2022-12-15T08:34:20.617Z,98244.96
2022-12-15T08:36:48.569Z,98243.58
2022-12-15T08:39:16.546Z,98242.30
2022-12-15T08:41:44.751Z,98244.96
2022-12-15T08:44:12.680Z,98248.83
2022-12-15T08:46:40.431Z,98257.61
2022-12-15T08:49:08.833Z,98261.49
2022-12-15T08:51:36.575Z,98261.30
2022-12-15T08:54:04.438Z,98267.27
2022-12-15T08:56:32.511Z,98261.98
2022-12-15T08:59:01.662Z,98261.91
2022-12-15T09:01:32.263Z,98260.59
2022-12-15T09:04:01.428Z,98270.38
2022-12-15T09:06:31.911Z,98272.13
2022-12-15T09:09:02.137Z,98275.77
2022-12-15T09:11:30.598Z,98282.45
2022-12-15T09:13:58.400Z,98283.89
2022-12-15T09:16:27.998Z,98283.58
2022-12-15T09:18:58.273Z,98284.63
2022-12-15T09:21:28.375Z,98278.39
2022-12-15T09:24:01.752Z,98274.89
2022-12-15T09:26:31.551Z,98279.24
2022-12-15T09:28:59.677Z,98281.11
2022-12-15T09:31:30.626Z,98282.02
2022-12-15T09:33:59.817Z,98288.44
2022-12-15T09:36:28.527Z,98287.31
2022-12-15T09:38:56.441Z,98291.09
2022-12-15T09:41:27.290Z,98287.77
2022-12-15T09:43:56.690Z,98282.55
2022-12-15T09:46:30.205Z,98282.67
2022-12-15T09:49:01.489Z,98281.66
2022-12-15T09:51:36.917Z,98285.35
2022-12-15T09:54:05.452Z,98291.75
2022-12-15T09:56:41.103Z,98297.45
2022-12-15T09:59:21.071Z,98301.80
2022-12-15T10:01:51.489Z,98301.41
2022-12-15T10:04:21.300Z,98302.80
2022-12-15T10:07:05.930Z,98312.09
2022-12-15T10:09:33.779Z,98322.75
2022-12-15T10:12:18.921Z,98330.56
2022-12-15T10:14:52.456Z,98330.52
2022-12-15T10:17:25.390Z,98324.94
2022-12-15T10:20:22.694Z,98323.17
2022-12-15T10:22:51.339Z,98327.00
2022-12-15T10:25:31.685Z,98326.52
2022-12-15T10:28:36.856Z,98333.61
2022-12-15T10:31:15.811Z,98341.16
2022-12-15T10:36:33.280Z,98339.85
2022-12-15T10:39:01.015Z,98344.33
2022-12-15T10:41:32.478Z,98344.88
2022-12-15T10:44:02.732Z,98349.27
2022-12-15T10:46:32.337Z,98349.30
2022-12-15T10:49:06.451Z,98347.83
2022-12-15T10:51:43.798Z,98349.02
2022-12-15T10:54:16.346Z,98347.49
2022-12-15T10:56:51.324Z,98349.17
2022-12-15T10:59:44.684Z,98351.45
2022-12-15T11:02:24.499Z,98354.48
2022-12-15T11:05:16.338Z,98357.73
2022-12-15T11:07:55.868Z,98360.40
2022-12-15T11:10:50.079Z,98364.77
2022-12-15T11:13:23.062Z,98367.55
2022-12-15T11:15:55.133Z,98370.48
2022-12-15T11:18:29.210Z,98371.80
2022-12-15T11:21:05.761Z,98370.85
2022-12-15T11:23:58.549Z,98371.35
2022-12-15T11:26:38.705Z,98376.05
2022-12-15T11:29:17.660Z,98377.98
2022-12-15T11:31:45.709Z,98383.79
2022-12-15T11:34:23.736Z,98386.92
2022-12-15T11:37:14.841Z,98398.42
2022-12-15T11:40:20.705Z,98402.58
2022-12-15T11:43:16.863Z,98407.95
2022-12-15T11:46:05.906Z,98413.17
2022-12-15T11:48:48.974Z,98421.83
2022-12-15T11:51:23.149Z,98423.58
2022-12-15T11:54:07.204Z,98428.86
2022-12-15T11:57:01.043Z,98431.96
2022-12-15T11:59:53.414Z,98435.81
2022-12-15T12:02:39.920Z,98434.75
2022-12-15T12:05:37.116Z,98440.23
2022-12-15T12:08:24.341Z,98444.83
2022-12-15T12:11:04.244Z,98443.73
2022-12-15T12:14:00.101Z,98444.03
2022-12-15T12:16:55.316Z,98443.14
2022-12-15T12:19:44.362Z,98451.31
2022-12-15T12:22:29.475Z,98453.27
2022-12-15T12:25:04.394Z,98445.48
2022-12-15T12:27:53.125Z,98443.10
2022-12-15T12:30:28.042Z,98444.95
2022-12-15T12:33:02.001Z,98450.19
2022-12-15T12:35:45.774Z,98449.89
2022-12-15T12:38:14.091Z,98450.77
2022-12-15T12:40:57.110Z,98454.14
2022-12-15T12:46:28.930Z,98465.25
2022-12-15T12:49:13.858Z,98467.23
2022-12-15T12:51:42.897Z,98478.06
2022-12-15T12:54:32.516Z,98476.73
2022-12-15T12:57:01.241Z,98479.61
2022-12-15T12:59:29.028Z,98483.01
2022-12-15T13:02:15.324Z,98494.44
2022-12-15T13:04:50.310Z,98500.61
2022-12-15T13:07:34.660Z,98504.58
2022-12-15T13:10:08.524Z,98514.62
2022-12-15T13:12:52.006Z,98513.67
2022-12-15T13:15:29.996Z,98511.16
2022-12-15T13:18:13.122Z,98515.30
2022-12-15T13:20:41.998Z,98514.98
2022-12-15T13:23:22.208Z,98519.45
2022-12-15T13:25:55.942Z,98513.29
2022-12-15T13:28:45.685Z,98509.95
2022-12-15T13:31:23.131Z,98510.11
2022-12-15T13:33:51.341Z,98507.38
2022-12-15T13:36:38.301Z,98510.01
2022-12-15T13:39:12.590Z,98500.70
2022-12-15T13:42:15.062Z,98498.55
2022-12-15T13:44:40.615Z,98498.84
2022-12-15T13:47:26.583Z,98500.08
2022-12-15T13:50:15.611Z,98500.00
2022-12-15T13:55:53.138Z,98502.69
2022-12-15T13:58:22.055Z,98507.31
2022-12-15T14:00:58.054Z,98510.63
2022-12-15T14:03:27.000Z,98509.30
2022-12-15T14:05:58.830Z,98507.80
2022-12-15T14:08:29.835Z,98515.73
2022-12-15T14:11:00.019Z,98497.59
2022-12-15T14:13:34.646Z,98500.67
2022-12-15T14:16:07.679Z,98502.33
2022-12-15T14:18:37.509Z,98506.44
2022-12-15T14:21:23.889Z,98512.80
2022-12-15T14:26:41.409Z,98516.11
2022-12-15T14:29:09.776Z,98515.71
2022-12-15T14:31:38.194Z,98519.63
2022-12-15T14:34:22.935Z,98528.84
2022-12-15T14:36:51.542Z,98537.52
2022-12-15T14:39:27.114Z,98540.63
2022-12-15T14:41:55.198Z,98539.13
2022-12-15T14:44:31.764Z,98544.16
2022-12-15T14:47:08.601Z,98539.97
2022-12-15T14:49:41.232Z,98542.31
2022-12-15T14:52:19.884Z,98545.61
2022-12-15T14:54:57.483Z,98544.66
2022-12-15T14:57:41.704Z,98544.50
2022-12-15T15:00:26.220Z,98545.34
2022-12-15T15:03:07.203Z,98465.52
2022-12-15T15:03:10.519Z,98343.39
2022-12-15T15:06:01.927Z,98543.20
2022-12-15T15:08:32.724Z,98551.38
2022-12-15T15:11:19.347Z,98548.81
2022-12-15T15:13:47.437Z,98558.84
2022-12-15T15:16:16.885Z,98562.93
2022-12-15T15:18:52.393Z,98565.45
2022-12-15T15:21:28.770Z,98568.00
2022-12-15T15:23:59.854Z,98578.27
2022-12-15T15:26:28.715Z,98576.05
2022-12-15T15:28:56.693Z,98573.86
2022-12-15T15:31:24.430Z,98580.41
2022-12-15T15:33:52.847Z,98594.23
2022-12-15T15:36:22.031Z,98599.65
2022-12-15T15:38:49.712Z,98598.46
2022-12-15T15:41:22.048Z,98601.61
2022-12-15T15:43:49.918Z,98607.98
2022-12-15T15:46:26.299Z,98616.36
2022-12-15T15:48:57.409Z,98624.05
2022-12-15T15:51:26.471Z,98627.33
2022-12-15T15:54:01.582Z,98635.81
2022-12-15T15:56:30.900Z,98633.17
2022-12-15T15:59:13.508Z,98625.81
2022-12-15T16:01:41.408Z,98631.34
2022-12-15T16:04:09.553Z,98637.89
2022-12-15T16:06:39.747Z,98648.25
2022-12-15T16:09:14.030Z,98650.27
2022-12-15T16:11:41.748Z,98648.85
2022-12-15T16:14:16.574Z,98651.16
2022-12-15T16:16:44.771Z,98657.86
2022-12-15T16:19:12.790Z,98658.22
2022-12-15T16:21:41.128Z,98659.85
2022-12-15T16:24:12.995Z,98662.38
2022-12-15T16:26:47.320Z,98659.96
2022-12-15T16:29:16.689Z,98651.70
2022-12-15T16:31:47.642Z,98663.84
2022-12-15T16:34:21.835Z,98663.64
2022-12-15T16:36:49.692Z,98666.04
2022-12-15T16:39:24.874Z,98668.46
2022-12-15T16:41:54.205Z,98666.90
2022-12-15T16:44:23.587Z,98660.83
2022-12-15T16:46:51.712Z,98658.05
2022-12-15T16:49:19.582Z,98658.71
2022-12-15T16:51:52.426Z,98662.52
2022-12-15T16:54:24.075Z,98661.88
2022-12-15T16:56:53.862Z,98669.42
2022-12-15T16:59:33.110Z,98668.27
2022-12-15T17:02:02.251Z,98666.43
2022-12-15T17:04:30.091Z,98667.53
2022-12-15T17:06:57.815Z,98662.73
2022-12-15T17:09:25.692Z,98661.65
2022-12-15T17:11:53.788Z,98663.98
2022-12-15T17:14:21.488Z,98667.89
2022-12-15T17:16:49.213Z,98666.60
2022-12-15T17:19:21.126Z,98665.45
2022-12-15T17:21:52.030Z,98667.92
2022-12-15T17:24:21.329Z,98665.48
2022-12-15T17:26:49.858Z,98668.14
2022-12-15T17:29:20.435Z,98669.59
2022-12-15T17:31:48.243Z,98663.94
2022-12-15T17:34:30.307Z,98662.89
2022-12-15T17:37:00.454Z,98660.95
2022-12-15T17:39:29.278Z,98663.85
2022-12-15T17:42:00.420Z,98663.59
2022-12-15T17:44:35.072Z,98654.86
2022-12-15T17:47:06.347Z,98657.27
2022-12-15T17:49:37.748Z,98653.06
2022-12-15T17:52:31.536Z,98654.31
2022-12-15T17:55:00.330Z,98656.00
2022-12-15T17:57:31.634Z,98656.90
2022-12-15T18:00:01.909Z,98664.81
2022-12-15T18:02:30.949Z,98665.91
2022-12-15T18:04:59.633Z,98673.09
2022-12-15T18:07:27.396Z,98678.91
2022-12-15T18:09:55.151Z,98683.92
2022-12-15T18:12:26.248Z,98686.33
2022-12-15T18:14:55.338Z,98684.84
2022-12-15T18:17:23.719Z,98684.48
2022-12-15T18:19:51.646Z,98687.83
2022-12-15T18:22:23.967Z,98691.98
2022-12-15T18:24:53.365Z,98688.10
2022-12-15T18:27:26.978Z,98693.14
2022-12-15T18:29:56.602Z,98704.73
2022-12-15T18:32:26.738Z,98710.02
2022-12-15T18:34:55.033Z,98708.35
2022-12-15T18:37:24.989Z,98719.82
2022-12-15T18:39:53.475Z,98721.42
2022-12-15T18:42:23.050Z,98721.06
2022-12-15T18:44:52.318Z,98722.58
2022-12-15T18:47:22.597Z,98720.00
2022-12-15T18:49:50.884Z,98717.52
2022-12-15T18:52:25.010Z,98721.07
2022-12-15T18:54:54.608Z,98721.95
2022-12-15T18:57:34.810Z,98718.45
2022-12-15T19:00:13.707Z,98715.13
2022-12-15T19:02:42.043Z,98712.69
2022-12-15T19:05:27.542Z,98713.44
2022-12-15T19:08:25.442Z,98714.63
2022-12-15T19:10:58.510Z,98725.04
2022-12-15T19:13:32.301Z,98721.02
2022-12-15T19:16:01.562Z,98720.88
2022-12-15T19:18:48.686Z,98718.65
2022-12-15T19:21:43.003Z,98711.71
2022-12-15T19:24:12.964Z,98709.36
2022-12-15T19:26:41.104Z,98708.56
2022-12-15T19:29:23.572Z,98708.61
2022-12-15T19:31:52.124Z,98709.64
2022-12-15T19:34:19.824Z,98704.30
2022-12-15T19:36:47.561Z,98706.64
2022-12-15T19:39:21.213Z,98707.52
2022-12-15T19:41:49.088Z,98713.02
2022-12-15T19:44:17.220Z,98709.36
2022-12-15T19:46:45.108Z,98712.41
2022-12-15T19:49:14.422Z,98711.49
2022-12-15T19:51:42.581Z,98708.34
2022-12-15T19:54:17.219Z,98716.30
2022-12-15T19:56:44.893Z,98714.59
2022-12-15T19:59:22.402Z,98711.44
2022-12-15T20:01:51.783Z,98703.60
2022-12-15T20:04:24.104Z,98705.31
2022-12-15T20:06:52.117Z,98714.16
2022-12-15T20:09:19.934Z,98716.31
2022-12-15T20:11:47.583Z,98725.10
2022-12-15T20:14:17.501Z,98730.30
2022-12-15T20:16:45.736Z,98728.39
2022-12-15T20:19:13.619Z,98722.78
2022-12-15T20:21:41.767Z,98725.23
2022-12-15T20:24:16.589Z,98727.70
2022-12-15T20:26:45.011Z,98725.44
2022-12-15T20:29:30.904Z,98726.71
2022-12-15T20:31:59.654Z,98723.61
2022-12-15T20:34:27.818Z,98726.12
2022-12-15T20:36:55.508Z,98727.72
2022-12-15T20:39:27.207Z,98731.48
2022-12-15T20:41:56.063Z,98736.14
2022-12-15T20:44:24.619Z,98727.81
2022-12-15T20:46:52.403Z,98737.09
2022-12-15T20:49:21.537Z,98734.60
2022-12-15T20:51:49.379Z,98731.35
2022-12-15T20:54:20.679Z,98728.27
2022-12-15T20:56:49.489Z,98722.27
2022-12-15T20:59:17.897Z,98721.15
2022-12-15T21:01:46.596Z,98716.28
2022-12-15T21:04:20.607Z,98714.57
2022-12-15T21:06:54.300Z,98715.27
2022-12-15T21:09:23.167Z,98717.33
2022-12-15T21:11:55.016Z,98717.18
2022-12-15T21:14:24.041Z,98715.01
2022-12-15T21:16:52.329Z,98711.39
2022-12-15T21:19:21.611Z,98715.79
2022-12-15T21:22:17.861Z,98714.21
2022-12-15T21:24:46.299Z,98719.53
2022-12-15T21:27:16.910Z,98722.83
2022-12-15T21:29:50.426Z,98719.55
2022-12-15T21:32:20.982Z,98709.80
2022-12-15T21:34:49.965Z,98706.33
2022-12-15T21:37:28.747Z,98706.83
2022-12-15T21:39:56.703Z,98709.96
2022-12-15T21:42:24.635Z,98709.03
2022-12-15T21:44:52.453Z,98708.85
2022-12-15T21:47:24.856Z,98706.15
2022-12-15T21:49:52.628Z,98708.58
2022-12-15T21:52:27.046Z,98714.26
2022-12-15T21:54:54.815Z,98721.69
2022-12-15T21:57:22.517Z,98726.52
2022-12-15T21:59:50.309Z,98729.34
2022-12-15T22:02:26.954Z,98729.33
2022-12-15T22:04:55.256Z,98732.45
2022-12-15T22:07:23.307Z,98725.66
2022-12-15T22:09:51.892Z,98732.88
2022-12-15T22:12:22.858Z,98732.60
2022-12-15T22:14:50.916Z,98734.74
2022-12-15T22:17:21.771Z,98732.21
2022-12-15T22:19:49.545Z,98735.50
2022-12-15T22:22:18.123Z,98730.33
2022-12-15T22:24:45.989Z,98734.61
2022-12-15T22:27:20.096Z,98741.01
2022-12-15T22:29:48.662Z,98738.52
2022-12-15T22:32:16.914Z,98734.20
2022-12-15T22:34:44.682Z,98726.80
2022-12-15T22:37:12.371Z,98727.13
2022-12-15T22:39:40.042Z,98729.84
2022-12-15T22:42:10.157Z,98735.09
2022-12-15T22:44:38.056Z,98739.23
2022-12-15T22:47:06.297Z,98736.16
2022-12-15T22:49:36.277Z,98730.14
2022-12-15T22:52:15.605Z,98727.67
2022-12-15T22:54:46.016Z,98723.55
2022-12-15T22:57:27.488Z,98724.55
2022-12-15T23:00:00.707Z,98718.23
2022-12-15T23:02:31.566Z,98715.77
2022-12-15T23:04:59.810Z,98706.13
2022-12-15T23:07:27.840Z,98701.86
2022-12-15T23:10:17.381Z,98696.96
2022-12-15T23:12:45.219Z,98700.71
2022-12-15T23:15:31.893Z,98701.84
2022-12-15T23:17:59.632Z,98698.26
2022-12-15T23:20:27.512Z,98696.30
2022-12-15T23:22:55.373Z,98692.20
2022-12-15T23:25:23.034Z,98691.60
2022-12-15T23:27:50.721Z,98697.85
2022-12-15T23:30:18.448Z,98703.27
2022-12-15T23:32:46.413Z,98704.89
2022-12-15T23:35:14.431Z,98701.48
2022-12-15T23:37:42.139Z,98707.80
2022-12-15T23:40:10.446Z,98710.77
2022-12-15T23:42:38.182Z,98709.61
2022-12-15T23:45:06.505Z,98710.05
2022-12-15T23:47:34.272Z,98716.58
2022-12-15T23:50:02.047Z,98708.48
2022-12-15T23:52:29.887Z,98695.86
2022-12-15T23:54:57.544Z,98695.50
2022-12-15T23:57:25.409Z,98693.92
2022-12-15T23:59:53.194Z,98691.88
